createdAt,value
2018-06-21T00:02:08.585Z,101245.97
2018-06-21T00:04:37.793Z,101249.59
2018-06-21T00:07:07.053Z,101244.66
2018-06-21T00:09:36.285Z,101240.81
2018-06-21T00:12:05.582Z,101239.41
2018-06-21T00:14:34.717Z,101230.66
2018-06-21T00:17:03.972Z,101227.25
2018-06-21T00:19:33.166Z,101224.58
2018-06-21T00:22:02.622Z,101221.56
2018-06-21T00:24:31.822Z,101231.49
2018-06-21T00:27:01.082Z,101228.02
2018-06-21T00:29:30.240Z,101224.05
2018-06-21T00:31:59.414Z,101222.50
2018-06-21T00:34:28.612Z,101225.44
2018-06-21T00:36:57.845Z,101226.70
2018-06-21T00:39:27.012Z,101228.19
2018-06-21T00:41:56.194Z,101224.94
2018-06-21T00:44:25.392Z,101227.80
2018-06-21T00:46:54.582Z,101219.87
2018-06-21T00:49:23.791Z,101216.36
2018-06-21T00:51:53.081Z,101218.44
2018-06-21T00:54:22.331Z,101223.30
2018-06-21T00:56:51.583Z,101218.19
2018-06-21T00:59:20.803Z,101213.20
2018-06-21T01:01:50.035Z,101222.50
2018-06-21T01:04:19.941Z,101215.31
2018-06-21T01:06:49.300Z,101210.80
2018-06-21T01:09:18.505Z,101203.39
2018-06-21T01:11:47.741Z,101201.79
2018-06-21T01:14:16.987Z,101204.25
2018-06-21T01:16:46.240Z,101204.50
2018-06-21T01:19:15.403Z,101191.47
2018-06-21T01:21:44.681Z,101190.16
2018-06-21T01:24:16.182Z,101176.16
2018-06-21T01:26:46.851Z,101176.28
2018-06-21T01:29:16.058Z,101170.30
2018-06-21T01:31:45.348Z,101175.80
2018-06-21T01:34:14.564Z,101166.16
2018-06-21T01:36:43.820Z,101156.89
2018-06-21T01:39:13.075Z,101157.74
2018-06-21T01:41:42.464Z,101153.35
2018-06-21T01:44:11.666Z,101147.89
2018-06-21T01:46:40.883Z,101144.12
2018-06-21T01:49:10.122Z,101136.92
2018-06-21T01:51:39.336Z,101136.81
2018-06-21T01:54:08.633Z,101128.04
2018-06-21T01:56:37.820Z,101134.25
2018-06-21T01:59:07.077Z,101124.76
2018-06-21T02:01:36.257Z,101131.70
2018-06-21T02:04:05.632Z,101126.34
2018-06-21T02:06:34.851Z,101121.59
2018-06-21T02:09:06.325Z,101120.72
2018-06-21T02:11:35.574Z,101116.13
2018-06-21T02:14:22.343Z,101114.28
2018-06-21T02:17:01.904Z,101115.98
2018-06-21T02:19:31.143Z,101117.45
2018-06-21T02:22:00.340Z,101120.84
2018-06-21T02:24:29.686Z,101114.63
2018-06-21T02:26:58.949Z,101119.27
2018-06-21T02:29:28.236Z,101114.38
2018-06-21T02:31:57.449Z,101107.03
2018-06-21T02:34:44.440Z,101120.59
2018-06-21T02:37:16.303Z,101125.44
2018-06-21T02:39:45.614Z,101122.38
2018-06-21T02:42:14.821Z,101123.21
2018-06-21T02:44:44.008Z,101119.05
2018-06-21T02:47:13.276Z,101119.67
2018-06-21T02:49:42.475Z,101114.64
2018-06-21T02:52:11.727Z,101113.69
2018-06-21T02:54:41.042Z,101110.42
2018-06-21T02:57:10.230Z,101114.20
2018-06-21T02:59:39.753Z,101115.03
2018-06-21T03:02:09.014Z,101116.25
2018-06-21T03:04:38.529Z,101111.26
2018-06-21T03:07:07.835Z,101116.34
2018-06-21T03:09:37.090Z,101110.98
2018-06-21T03:12:18.130Z,101118.06
2018-06-21T03:14:47.294Z,101120.98
2018-06-21T03:17:16.552Z,101120.00
2018-06-21T03:19:45.763Z,101117.05
2018-06-21T03:22:15.654Z,101107.69
2018-06-21T03:24:44.814Z,101103.40
2018-06-21T03:27:14.080Z,101099.27
2018-06-21T03:29:43.303Z,101097.81
2018-06-21T03:32:12.509Z,101095.45
2018-06-21T03:34:41.796Z,101087.77
2018-06-21T03:37:11.028Z,101089.23
2018-06-21T03:39:40.241Z,101086.16
2018-06-21T03:42:09.480Z,101092.85
2018-06-21T03:44:38.769Z,101089.47
2018-06-21T03:47:07.950Z,101085.81
2018-06-21T03:49:37.207Z,101077.79
2018-06-21T03:52:06.913Z,101078.25
2018-06-21T03:54:36.270Z,101083.83
2018-06-21T03:57:05.503Z,101084.94
2018-06-21T03:59:34.813Z,101084.06
2018-06-21T04:02:04.307Z,101077.16
2018-06-21T04:04:33.518Z,101077.62
2018-06-21T04:07:02.778Z,101077.11
2018-06-21T04:09:33.445Z,101076.75
2018-06-21T04:12:02.791Z,101086.78
2018-06-21T04:14:31.990Z,101094.24
2018-06-21T04:17:01.235Z,101095.78
2018-06-21T04:19:30.406Z,101093.66
2018-06-21T04:21:59.626Z,101094.99
2018-06-21T04:24:28.836Z,101091.30
2018-06-21T04:26:58.030Z,101087.23
2018-06-21T04:29:27.224Z,101094.60
2018-06-21T04:31:56.429Z,101090.78
2018-06-21T04:34:25.614Z,101091.52
2018-06-21T04:36:54.787Z,101085.27
2018-06-21T04:39:24.003Z,101088.56
2018-06-21T04:41:53.226Z,101077.37
2018-06-21T04:44:22.447Z,101078.98
2018-06-21T04:46:51.699Z,101079.19
2018-06-21T04:49:20.917Z,101083.02
2018-06-21T04:51:50.202Z,101087.38
2018-06-21T04:54:19.676Z,101084.19
2018-06-21T04:56:48.917Z,101088.13
2018-06-21T04:59:18.148Z,101090.56
2018-06-21T05:01:47.342Z,101093.48
2018-06-21T05:04:16.610Z,101097.14
2018-06-21T05:06:45.875Z,101091.44
2018-06-21T05:09:15.094Z,101094.94
2018-06-21T05:11:44.375Z,101096.39
2018-06-21T05:14:13.612Z,101095.91
2018-06-21T05:16:42.836Z,101090.92
2018-06-21T05:19:12.070Z,101097.56
2018-06-21T05:21:41.339Z,101090.59
2018-06-21T05:24:10.575Z,101098.25
2018-06-21T05:26:39.768Z,101092.67
2018-06-21T05:29:09.575Z,101098.77
2018-06-21T05:31:38.698Z,101103.66
2018-06-21T05:34:08.160Z,101104.46
2018-06-21T05:36:37.347Z,101106.41
2018-06-21T05:39:08.722Z,101101.29
2018-06-21T05:41:37.882Z,101098.48
2018-06-21T05:44:07.087Z,101104.87
2018-06-21T05:49:28.192Z,101111.36
2018-06-21T05:51:57.363Z,101106.12
2018-06-21T05:54:26.493Z,101105.91
2018-06-21T05:56:55.741Z,101116.16
2018-06-21T05:59:24.931Z,101106.11
2018-06-21T06:01:54.656Z,101111.75
2018-06-21T06:04:23.966Z,101112.62
2018-06-21T06:06:53.174Z,101122.18
2018-06-21T06:09:22.369Z,101121.33
2018-06-21T06:11:51.543Z,101109.44
2018-06-21T06:14:20.820Z,101109.75
2018-06-21T06:16:50.149Z,101115.88
2018-06-21T06:19:19.219Z,101118.55
2018-06-21T06:21:48.417Z,101130.55
2018-06-21T06:24:17.608Z,101137.67
2018-06-21T06:26:46.794Z,101141.81
2018-06-21T06:29:15.912Z,101140.00
2018-06-21T06:31:45.004Z,101127.88
2018-06-21T06:34:14.144Z,101138.16
2018-06-21T06:36:43.264Z,101141.64
2018-06-21T06:39:15.898Z,101152.57
2018-06-21T06:41:46.057Z,101158.75
2018-06-21T06:44:15.215Z,101150.29
2018-06-21T06:46:44.438Z,101155.64
2018-06-21T06:49:13.958Z,101162.53
2018-06-21T06:51:43.121Z,101159.15
2018-06-21T06:54:12.758Z,101167.95
2018-06-21T06:56:41.923Z,101165.27
2018-06-21T06:59:11.117Z,101161.49
2018-06-21T07:01:40.234Z,101170.06
2018-06-21T07:04:09.903Z,101175.44
2018-06-21T07:06:40.115Z,101175.08
2018-06-21T07:09:09.891Z,101177.75
2018-06-21T07:11:39.160Z,101179.98
2018-06-21T07:14:08.524Z,101183.63
2018-06-21T07:16:37.885Z,101179.56
2018-06-21T07:19:07.026Z,101182.16
2018-06-21T07:21:38.740Z,101187.01
2018-06-21T07:24:08.641Z,101185.84
2018-06-21T07:26:38.988Z,101193.34
2018-06-21T07:29:08.804Z,101191.78
2018-06-21T07:31:37.950Z,101205.27
2018-06-21T07:34:07.053Z,101207.00
2018-06-21T07:36:36.291Z,101209.61
2018-06-21T07:39:07.854Z,101214.33
2018-06-21T07:41:37.053Z,101218.81
2018-06-21T07:44:06.349Z,101216.02
2018-06-21T07:46:35.537Z,101211.80
2018-06-21T07:49:04.805Z,101216.86
2018-06-21T07:51:34.012Z,101240.20
2018-06-21T07:54:03.182Z,101243.37
2018-06-21T07:56:32.371Z,101253.76
2018-06-21T07:59:01.978Z,101260.73
2018-06-21T08:01:31.073Z,101263.09
2018-06-21T08:04:00.306Z,101264.80
2018-06-21T08:06:29.468Z,101268.12
2018-06-21T08:08:58.736Z,101283.82
2018-06-21T08:11:28.037Z,101283.89
2018-06-21T08:13:57.304Z,101286.70
2018-06-21T08:16:26.548Z,101283.67
2018-06-21T08:18:55.759Z,101277.42
2018-06-21T08:21:24.985Z,101285.05
2018-06-21T08:23:54.147Z,101287.89
2018-06-21T08:26:24.261Z,101286.67
2018-06-21T08:28:53.479Z,101291.41
2018-06-21T08:31:22.802Z,101296.82
2018-06-21T08:33:51.975Z,101301.73
2018-06-21T08:36:21.229Z,101298.73
2018-06-21T08:38:50.459Z,101302.59
2018-06-21T08:41:19.749Z,101324.08
2018-06-21T08:43:48.944Z,101321.51
2018-06-21T08:46:18.110Z,101334.06
2018-06-21T08:48:47.437Z,101336.21
2018-06-21T08:51:16.622Z,101343.69
2018-06-21T08:53:45.825Z,101339.14
2018-06-21T08:56:14.993Z,101354.09
2018-06-21T08:58:44.186Z,101348.17
2018-06-21T09:01:13.394Z,101357.20
2018-06-21T09:03:42.602Z,101351.84
2018-06-21T09:06:11.713Z,101366.39
2018-06-21T09:08:40.919Z,101361.20
2018-06-21T09:11:11.168Z,101370.98
2018-06-21T09:13:40.340Z,101386.81
2018-06-21T09:16:11.057Z,101376.61
2018-06-21T09:18:40.647Z,101377.00
2018-06-21T09:21:09.784Z,101387.51
2018-06-21T09:23:38.902Z,101386.53
2018-06-21T09:26:08.170Z,101383.92
2018-06-21T09:28:37.329Z,101388.30
2018-06-21T09:31:06.518Z,101390.94
2018-06-21T09:33:35.672Z,101390.94
2018-06-21T09:36:04.919Z,101398.63
2018-06-21T09:38:39.480Z,101401.59
2018-06-21T09:41:13.828Z,101404.30
2018-06-21T09:43:50.296Z,101408.93
2018-06-21T09:46:33.870Z,101410.34
2018-06-21T09:48:52.967Z,101413.48
2018-06-21T09:51:22.417Z,101415.47
2018-06-21T09:53:51.666Z,101420.42
2018-06-21T09:56:20.761Z,101416.37
2018-06-21T09:58:50.016Z,101412.20
2018-06-21T10:01:19.189Z,101413.23
2018-06-21T10:03:48.338Z,101421.61
2018-06-21T10:06:17.625Z,101427.43
2018-06-21T10:08:46.745Z,101437.39
2018-06-21T10:11:15.903Z,101440.08
2018-06-21T10:13:45.051Z,101447.12
2018-06-21T10:16:14.201Z,101439.61
2018-06-21T10:18:43.385Z,101438.03
2018-06-21T10:21:12.497Z,101440.45
2018-06-21T10:23:41.585Z,101440.97
2018-06-21T10:26:10.725Z,101442.96
2018-06-21T10:28:39.840Z,101442.31
2018-06-21T10:31:09.009Z,101447.13
2018-06-21T10:33:38.122Z,101455.83
2018-06-21T10:36:07.286Z,101457.23
2018-06-21T10:38:36.471Z,101464.46
2018-06-21T10:41:05.686Z,101466.09
2018-06-21T10:43:34.827Z,101464.08
2018-06-21T10:46:03.919Z,101469.53
2018-06-21T10:48:33.123Z,101484.81
2018-06-21T10:51:02.418Z,101476.41
2018-06-21T10:53:31.613Z,101474.81
2018-06-21T10:56:00.726Z,101482.78
2018-06-21T10:58:29.944Z,101482.23
2018-06-21T11:00:59.175Z,101483.88
2018-06-21T11:03:28.382Z,101490.20
2018-06-21T11:05:57.584Z,101486.50
2018-06-21T11:08:26.711Z,101490.06
2018-06-21T11:10:55.945Z,101500.39
2018-06-21T11:13:25.054Z,101505.63
2018-06-21T11:15:54.165Z,101501.84
2018-06-21T11:18:23.255Z,101514.75
2018-06-21T11:20:52.524Z,101515.05
2018-06-21T11:23:21.750Z,101503.55
2018-06-21T11:25:50.836Z,101508.97
2018-06-21T11:28:20.026Z,101518.88
2018-06-21T11:30:49.272Z,101524.59
2018-06-21T11:33:18.441Z,101527.41
2018-06-21T11:35:47.562Z,101532.40
2018-06-21T11:38:16.813Z,101537.50
2018-06-21T11:40:45.926Z,101535.98
2018-06-21T11:43:15.057Z,101534.06
2018-06-21T11:45:44.307Z,101543.58
2018-06-21T11:48:13.591Z,101545.88
2018-06-21T11:50:42.767Z,101541.67
2018-06-21T11:53:11.998Z,101545.15
2018-06-21T11:55:41.162Z,101538.18
2018-06-21T11:58:10.329Z,101548.63
2018-06-21T12:00:39.430Z,101550.25
2018-06-21T12:03:08.651Z,101551.69
2018-06-21T12:05:38.189Z,101557.22
2018-06-21T12:08:07.383Z,101563.72
2018-06-21T12:10:36.586Z,101554.25
2018-06-21T12:13:05.695Z,101552.42
2018-06-21T12:15:35.673Z,101554.19
2018-06-21T12:18:04.915Z,101565.66
2018-06-21T12:20:34.055Z,101562.53
2018-06-21T12:23:03.206Z,101578.61
2018-06-21T12:25:32.392Z,101576.70
2018-06-21T12:28:01.525Z,101577.92
2018-06-21T12:30:30.648Z,101586.09
2018-06-21T12:32:59.891Z,101580.22
2018-06-21T12:35:29.049Z,101581.77
2018-06-21T12:37:58.202Z,101585.92
2018-06-21T12:40:27.375Z,101601.02
2018-06-21T12:42:56.487Z,101601.99
2018-06-21T12:45:25.639Z,101600.34
2018-06-21T12:47:54.957Z,101603.73
2018-06-21T12:50:24.180Z,101601.21
2018-06-21T12:52:53.384Z,101606.20
2018-06-21T12:55:22.653Z,101617.84
2018-06-21T12:57:51.763Z,101609.81
2018-06-21T13:00:21.024Z,101624.01
2018-06-21T13:02:50.434Z,101618.78
2018-06-21T13:05:19.663Z,101632.78
2018-06-21T13:07:48.814Z,101624.73
2018-06-21T13:10:29.025Z,101626.95
2018-06-21T13:13:10.213Z,101637.37
2018-06-21T13:15:39.893Z,101643.09
2018-06-21T13:18:09.031Z,101630.45
2018-06-21T13:20:38.300Z,101635.27
2018-06-21T13:23:07.522Z,101645.19
2018-06-21T13:25:36.658Z,101643.73
2018-06-21T13:28:06.420Z,101647.54
2018-06-21T13:30:35.585Z,101640.88
2018-06-21T13:33:04.952Z,101645.17
2018-06-21T13:35:34.093Z,101648.46
2018-06-21T13:38:03.310Z,101654.85
2018-06-21T13:40:32.807Z,101657.95
2018-06-21T13:43:02.009Z,101662.80
2018-06-21T13:45:31.262Z,101657.16
2018-06-21T13:48:00.442Z,101669.76
2018-06-21T13:50:29.686Z,101676.84
2018-06-21T13:52:58.796Z,101672.46
2018-06-21T13:55:28.024Z,101676.60
2018-06-21T13:57:57.105Z,101682.79
2018-06-21T14:00:26.307Z,101668.34
2018-06-21T14:02:55.532Z,101676.58
2018-06-21T14:05:24.768Z,101684.64
2018-06-21T14:07:54.048Z,101688.06
2018-06-21T14:10:23.190Z,101683.15
2018-06-21T14:12:52.430Z,101697.91
2018-06-21T14:15:21.504Z,101690.88
2018-06-21T14:17:50.683Z,101698.59
2018-06-21T14:20:19.837Z,101695.84
2018-06-21T14:22:48.985Z,101702.16
2018-06-21T14:25:18.149Z,101698.25
2018-06-21T14:27:47.309Z,101702.84
2018-06-21T14:30:16.408Z,101702.33
2018-06-21T14:32:46.038Z,101706.23
2018-06-21T14:35:15.373Z,101705.58
2018-06-21T14:37:44.474Z,101710.41
2018-06-21T14:40:13.611Z,101713.16
2018-06-21T14:42:42.741Z,101717.30
2018-06-21T14:45:11.902Z,101725.85
2018-06-21T14:47:41.015Z,101733.71
2018-06-21T14:50:10.152Z,101722.85
2018-06-21T14:52:39.361Z,101722.95
2018-06-21T14:55:08.471Z,101725.42
2018-06-21T14:57:37.609Z,101719.70
2018-06-21T15:00:06.815Z,101735.61
2018-06-21T15:02:35.957Z,101734.92
2018-06-21T15:05:05.230Z,101738.73
2018-06-21T15:07:34.327Z,101740.41
2018-06-21T15:10:03.512Z,101743.78
2018-06-21T15:12:32.644Z,101741.16
2018-06-21T15:15:01.813Z,101743.32
2018-06-21T15:17:31.174Z,101746.91
2018-06-21T15:20:00.374Z,101753.28
2018-06-21T15:22:29.586Z,101755.67
2018-06-21T15:24:58.747Z,101752.45
2018-06-21T15:27:27.951Z,101754.48
2018-06-21T15:29:57.091Z,101762.20
2018-06-21T15:32:26.635Z,101761.83
2018-06-21T15:34:55.809Z,101763.45
2018-06-21T15:37:24.973Z,101760.97
2018-06-21T15:39:54.164Z,101755.10
2018-06-21T15:42:23.332Z,101759.42
2018-06-21T15:44:52.753Z,101768.28
2018-06-21T15:47:21.926Z,101772.29
2018-06-21T15:49:51.060Z,101777.83
2018-06-21T15:52:20.607Z,101784.06
2018-06-21T15:54:49.792Z,101781.00
2018-06-21T15:57:18.922Z,101783.69
2018-06-21T15:59:48.159Z,101785.52
2018-06-21T16:02:17.328Z,101784.92
2018-06-21T16:04:46.488Z,101780.05
2018-06-21T16:07:15.732Z,101792.72
2018-06-21T16:09:45.055Z,101786.80
2018-06-21T16:12:14.262Z,101797.70
2018-06-21T16:14:43.501Z,101796.67
2018-06-21T16:17:12.689Z,101797.33
2018-06-21T16:19:41.839Z,101795.60
2018-06-21T16:22:11.020Z,101792.64
2018-06-21T16:24:40.256Z,101800.02
2018-06-21T16:27:09.389Z,101799.81
2018-06-21T16:29:38.505Z,101804.69
2018-06-21T16:32:07.687Z,101810.61
2018-06-21T16:34:37.025Z,101810.22
2018-06-21T16:37:06.264Z,101819.77
2018-06-21T16:39:35.618Z,101808.67
2018-06-21T16:42:04.874Z,101818.90
2018-06-21T16:44:34.104Z,101817.65
2018-06-21T16:47:04.825Z,101815.42
2018-06-21T16:49:34.067Z,101816.57
2018-06-21T16:52:03.299Z,101813.25
2018-06-21T16:54:32.519Z,101818.38
2018-06-21T16:57:02.571Z,101808.84
2018-06-21T16:59:31.910Z,101815.02
2018-06-21T17:02:01.078Z,101818.62
2018-06-21T17:04:30.196Z,101821.38
2018-06-21T17:06:59.371Z,101820.94
2018-06-21T17:09:28.559Z,101821.10
2018-06-21T17:11:57.669Z,101821.53
2018-06-21T17:14:26.881Z,101822.73
2018-06-21T17:16:56.085Z,101820.23
2018-06-21T17:19:25.354Z,101822.72
2018-06-21T17:21:54.687Z,101821.24
2018-06-21T17:24:23.856Z,101819.67
2018-06-21T17:26:52.968Z,101822.03
2018-06-21T17:29:22.115Z,101823.63
2018-06-21T17:31:51.345Z,101831.78
2018-06-21T17:34:20.473Z,101830.47
2018-06-21T17:36:49.631Z,101839.52
2018-06-21T17:39:18.759Z,101845.84
2018-06-21T17:41:47.918Z,101840.79
2018-06-21T17:44:17.036Z,101838.88
2018-06-21T17:46:46.299Z,101843.14
2018-06-21T17:49:15.516Z,101848.77
2018-06-21T17:51:44.662Z,101844.41
2018-06-21T17:54:13.789Z,101840.22
2018-06-21T17:56:42.994Z,101853.05
2018-06-21T17:59:12.183Z,101848.79
2018-06-21T18:01:41.412Z,101849.23
2018-06-21T18:04:11.082Z,101847.98
2018-06-21T18:06:40.344Z,101856.39
2018-06-21T18:09:10.394Z,101854.55
2018-06-21T18:11:39.640Z,101870.73
2018-06-21T18:14:08.824Z,101871.45
2018-06-21T18:16:37.953Z,101872.95
2018-06-21T18:19:07.158Z,101873.37
2018-06-21T18:21:36.378Z,101868.42
2018-06-21T18:24:05.930Z,101872.38
2018-06-21T18:26:35.017Z,101863.96
2018-06-21T18:29:04.393Z,101863.84
2018-06-21T18:31:33.548Z,101871.91
2018-06-21T18:34:02.728Z,101878.45
2018-06-21T18:36:31.891Z,101882.05
2018-06-21T18:39:01.030Z,101879.70
2018-06-21T18:41:30.231Z,101887.63
2018-06-21T18:43:59.408Z,101886.74
2018-06-21T18:46:28.558Z,101882.21
2018-06-21T18:48:57.751Z,101890.03
2018-06-21T18:51:27.077Z,101894.30
2018-06-21T18:53:56.316Z,101893.90
2018-06-21T18:56:25.616Z,101906.86
2018-06-21T18:58:54.784Z,101896.45
2018-06-21T19:01:23.909Z,101901.23
2018-06-21T19:03:53.074Z,101899.75
2018-06-21T19:06:27.510Z,101902.18
2018-06-21T19:09:01.846Z,101932.09
2018-06-21T19:11:36.218Z,101917.83
2018-06-21T19:14:05.388Z,101907.85
2018-06-21T19:16:34.554Z,101914.73
2018-06-21T19:19:03.691Z,101910.15
2018-06-21T19:21:32.899Z,101922.04
2018-06-21T19:24:02.053Z,101917.40
2018-06-21T19:26:31.363Z,101921.98
2018-06-21T19:29:00.540Z,101926.92
2018-06-21T19:31:29.655Z,101928.03
2018-06-21T19:33:59.586Z,101936.61
2018-06-21T19:36:28.748Z,101942.27
2018-06-21T19:38:57.958Z,101943.89
2018-06-21T19:41:27.164Z,101947.28
2018-06-21T19:43:56.358Z,101938.72
2018-06-21T19:46:25.608Z,101941.97
2018-06-21T19:48:54.755Z,101943.44
2018-06-21T19:51:23.941Z,101950.39
2018-06-21T19:53:53.117Z,101957.42
2018-06-21T19:56:22.462Z,101954.25
2018-06-21T19:58:51.640Z,101963.82
2018-06-21T20:01:20.760Z,101963.57
2018-06-21T20:03:49.932Z,101964.30
2018-06-21T20:06:19.108Z,101972.13
2018-06-21T20:08:48.330Z,101977.50
2018-06-21T20:11:22.931Z,101980.67
2018-06-21T20:13:52.699Z,101981.43
2018-06-21T20:16:22.096Z,101986.67
2018-06-21T20:18:51.433Z,101994.10
2018-06-21T20:21:21.213Z,101983.94
2018-06-21T20:23:51.506Z,101976.30
2018-06-21T20:26:21.398Z,101987.86
2018-06-21T20:28:50.541Z,101984.52
2018-06-21T20:31:19.631Z,101989.02
2018-06-21T20:33:48.756Z,101994.91
2018-06-21T20:36:17.996Z,101994.27
2018-06-21T20:38:47.098Z,101994.98
2018-06-21T20:41:16.276Z,101996.56
2018-06-21T20:43:45.370Z,101992.87
2018-06-21T20:46:14.488Z,102003.33
2018-06-21T20:48:43.635Z,102004.95
2018-06-21T20:51:12.996Z,101994.84
2018-06-21T20:53:42.140Z,102007.23
2018-06-21T20:56:11.305Z,102003.57
2018-06-21T20:58:40.401Z,102010.08
2018-06-21T21:01:10.015Z,102011.81
2018-06-21T21:03:39.185Z,102013.14
2018-06-21T21:06:08.274Z,102020.97
2018-06-21T21:08:37.438Z,102022.09
2018-06-21T21:11:06.625Z,102023.67
2018-06-21T21:13:35.825Z,102023.36
2018-06-21T21:16:05.279Z,102033.70
2018-06-21T21:18:34.524Z,102035.30
2018-06-21T21:21:03.642Z,102030.92
2018-06-21T21:23:32.749Z,102030.11
2018-06-21T21:26:01.861Z,102038.12
2018-06-21T21:28:31.079Z,102039.73
2018-06-21T21:31:00.160Z,102039.97
2018-06-21T21:33:29.253Z,102043.52
2018-06-21T21:35:58.440Z,102037.95
2018-06-21T21:38:27.618Z,102040.77
2018-06-21T21:40:56.740Z,102044.35
2018-06-21T21:43:25.846Z,102042.06
2018-06-21T21:45:54.920Z,102049.17
2018-06-21T21:48:30.670Z,102047.09
2018-06-21T21:50:59.890Z,102039.36
2018-06-21T21:53:28.966Z,102045.67
2018-06-21T21:55:58.121Z,102040.54
2018-06-21T21:58:27.209Z,102037.55
2018-06-21T22:00:56.973Z,102049.38
2018-06-21T22:03:26.073Z,102041.59
2018-06-21T22:05:55.181Z,102042.58
2018-06-21T22:08:24.275Z,102037.39
2018-06-21T22:10:53.376Z,102042.84
2018-06-21T22:13:22.470Z,102037.28
2018-06-21T22:15:51.733Z,102041.81
2018-06-21T22:18:20.864Z,102035.06
2018-06-21T22:20:49.974Z,102033.80
2018-06-21T22:23:19.124Z,102023.92
2018-06-21T22:25:48.320Z,102019.67
2018-06-21T22:28:17.449Z,102025.90
2018-06-21T22:30:46.543Z,102028.72
2018-06-21T22:33:16.200Z,102033.91
2018-06-21T22:35:45.305Z,102038.98
2018-06-21T22:38:14.405Z,102038.48
2018-06-21T22:40:43.509Z,102038.88
2018-06-21T22:43:12.600Z,102035.02
2018-06-21T22:45:41.760Z,102034.02
2018-06-21T22:48:10.843Z,102031.98
2018-06-21T22:50:40.539Z,102027.81
2018-06-21T22:53:09.709Z,102028.98
2018-06-21T22:55:38.865Z,102027.98
2018-06-21T22:58:08.026Z,102025.45
2018-06-21T23:00:37.149Z,102027.35
2018-06-21T23:03:06.288Z,102026.58
2018-06-21T23:05:35.454Z,102027.02
2018-06-21T23:08:04.686Z,102026.39
2018-06-21T23:10:33.973Z,102029.38
2018-06-21T23:13:03.151Z,102038.16
2018-06-21T23:15:32.308Z,102032.66
2018-06-21T23:18:01.390Z,102026.98
2018-06-21T23:20:30.507Z,102033.54
2018-06-21T23:22:59.792Z,102027.63
2018-06-21T23:25:28.962Z,102023.61
2018-06-21T23:27:58.123Z,102021.45
2018-06-21T23:30:27.763Z,102020.33
2018-06-21T23:32:56.956Z,102017.39
2018-06-21T23:35:26.096Z,102016.61
2018-06-21T23:37:55.254Z,102020.33
2018-06-21T23:40:24.365Z,102016.27
2018-06-21T23:42:53.494Z,102015.29
2018-06-21T23:45:22.587Z,102017.34
2018-06-21T23:47:51.740Z,102013.37
2018-06-21T23:50:20.872Z,102014.15
2018-06-21T23:52:49.947Z,102014.92
2018-06-21T23:55:19.083Z,102018.69
2018-06-21T23:57:48.217Z,102021.94
